createdAt,value
2022-09-15T00:19:14.660Z,1006.79
2022-09-15T00:47:58.081Z,1006.77
2022-09-15T01:46:47.706Z,1006.55
2022-09-15T02:15:49.319Z,1006.37
2022-09-15T02:44:39.471Z,1006.46
2022-09-15T03:13:30.145Z,1006.62
2022-09-15T03:42:25.688Z,1006.82
2022-09-15T04:11:24.587Z,1006.7
2022-09-15T04:40:16.199Z,1006.5
2022-09-15T05:09:11.185Z,1006.67
2022-09-15T05:37:25.585Z,1006.74
2022-09-15T07:05:22.803Z,1007.49
2022-09-15T07:33:34.301Z,1007.39
2022-09-15T08:02:22.163Z,1007.65
2022-09-15T08:30:55.572Z,1007.71
2022-09-15T09:00:19.545Z,1008.02
2022-09-15T09:28:52.880Z,1007.82
2022-09-15T09:57:15.754Z,1007.63
2022-09-15T10:26:02.036Z,1007.42
2022-09-15T10:54:27.030Z,1008.65
2022-09-15T11:22:50.370Z,1009.14
2022-09-15T11:51:13.617Z,1009.53
2022-09-15T12:20:00.832Z,1009.69
2022-09-15T12:48:16.839Z,1009.95
2022-09-15T13:17:07.782Z,1009.96
2022-09-15T13:45:59.022Z,1009.87
2022-09-15T14:14:35.942Z,1009.65
2022-09-15T14:43:05.844Z,1009.5
2022-09-15T15:11:56.063Z,1009.39
2022-09-15T15:40:34.615Z,1009.4
2022-09-15T16:09:18.650Z,1009.46
2022-09-15T16:37:58.632Z,1009.78
2022-09-15T17:06:44.538Z,1009.96
2022-09-15T17:35:19.008Z,1009.98
2022-09-15T18:04:04.476Z,1009.91
2022-09-15T18:32:37.299Z,1010.22
2022-09-15T19:01:14.585Z,1010.61
2022-09-15T19:29:44.338Z,1010.68
2022-09-15T19:58:25.742Z,1010.9
2022-09-15T20:27:29.449Z,1011.02
2022-09-15T20:55:57.101Z,1011.09
2022-09-15T21:24:32.367Z,1011.09
2022-09-15T21:53:02.147Z,1011.21
2022-09-15T22:21:43.553Z,1011.25
2022-09-15T23:18:46.775Z,1011.24
2022-09-15T23:47:04.645Z,1011.37
